sensor_id;sensor_type;location;lat;lon;timestamp;P1;durP1;ratioP1;P2;durP2;ratioP2
938;SDS011;456;53.584;9.968;2024-01-30T00:01:00;5.20;;;4.70;;
938;SDS011;456;53.584;9.968;2024-01-30T00:03:26;4.50;;;4.10;;
938;SDS011;456;53.584;9.968;2024-01-30T00:05:51;5.30;;;4.90;;
938;SDS011;456;53.584;9.968;2024-01-30T00:08:17;5.47;;;5.07;;
938;SDS011;456;53.584;9.968;2024-01-30T00:10:43;4.90;;;4.50;;
938;SDS011;456;53.584;9.968;2024-01-30T00:13:09;5.30;;;4.80;;
938;SDS011;456;53.584;9.968;2024-01-30T00:15:34;5.10;;;4.70;;
938;SDS011;456;53.584;9.968;2024-01-30T00:18:00;6.37;;;5.77;;
938;SDS011;456;53.584;9.968;2024-01-30T00:20:26;6.43;;;4.57;;
938;SDS011;456;53.584;9.968;2024-01-30T00:22:52;5.30;;;4.80;;
938;SDS011;456;53.584;9.968;2024-01-30T00:25:17;5.17;;;4.77;;
938;SDS011;456;53.584;9.968;2024-01-30T00:27:43;5.03;;;4.63;;
938;SDS011;456;53.584;9.968;2024-01-30T00:30:09;5.10;;;4.70;;
938;SDS011;456;53.584;9.968;2024-01-30T00:32:35;5.53;;;5.03;;
938;SDS011;456;53.584;9.968;2024-01-30T00:35:00;4.83;;;4.33;;
938;SDS011;456;53.584;9.968;2024-01-30T00:37:26;5.60;;;5.00;;
938;SDS011;456;53.584;9.968;2024-01-30T00:39:51;5.23;;;4.83;;
938;SDS011;456;53.584;9.968;2024-01-30T00:42:17;5.67;;;5.17;;
938;SDS011;456;53.584;9.968;2024-01-30T00:44:43;5.67;;;5.17;;
938;SDS011;456;53.584;9.968;2024-01-30T00:47:08;6.20;;;5.60;;
938;SDS011;456;53.584;9.968;2024-01-30T00:49:34;6.33;;;5.70;;
938;SDS011;456;53.584;9.968;2024-01-30T00:52:00;5.40;;;5.00;;
938;SDS011;456;53.584;9.968;2024-01-30T00:54:25;5.23;;;4.73;;
938;SDS011;456;53.584;9.968;2024-01-30T00:56:51;4.80;;;4.40;;
938;SDS011;456;53.584;9.968;2024-01-30T00:59:16;6.33;;;5.73;;
938;SDS011;456;53.584;9.968;2024-01-30T01:01:42;5.70;;;5.20;;
938;SDS011;456;53.584;9.968;2024-01-30T01:04:08;6.33;;;5.73;;
938;SDS011;456;53.584;9.968;2024-01-30T01:06:33;5.53;;;5.03;;
938;SDS011;456;53.584;9.968;2024-01-30T01:08:59;5.47;;;5.07;;
938;SDS011;456;53.584;9.968;2024-01-30T01:11:24;5.00;;;4.60;;
938;SDS011;456;53.584;9.968;2024-01-30T01:13:50;5.13;;;4.73;;
938;SDS011;456;53.584;9.968;2024-01-30T01:16:15;5.63;;;5.13;;
938;SDS011;456;53.584;9.968;2024-01-30T01:18:41;6.43;;;5.07;;
938;SDS011;456;53.584;9.968;2024-01-30T01:21:06;5.67;;;5.10;;
938;SDS011;456;53.584;9.968;2024-01-30T01:23:32;6.27;;;5.67;;
938;SDS011;456;53.584;9.968;2024-01-30T01:25:57;5.60;;;5.10;;
938;SDS011;456;53.584;9.968;2024-01-30T01:28:24;5.13;;;4.73;;
938;SDS011;456;53.584;9.968;2024-01-30T01:30:50;5.43;;;4.93;;
938;SDS011;456;53.584;9.968;2024-01-30T01:33:16;5.23;;;4.73;;
938;SDS011;456;53.584;9.968;2024-01-30T01:35:42;5.07;;;4.67;;
938;SDS011;456;53.584;9.968;2024-01-30T01:38:08;5.97;;;5.37;;
938;SDS011;456;53.584;9.968;2024-01-30T01:40:33;6.77;;;6.17;;
938;SDS011;456;53.584;9.968;2024-01-30T01:43:02;5.70;;;5.20;;
938;SDS011;456;53.584;9.968;2024-01-30T01:45:28;6.37;;;5.77;;
938;SDS011;456;53.584;9.968;2024-01-30T01:47:54;5.43;;;5.00;;
938;SDS011;456;53.584;9.968;2024-01-30T01:50:20;5.13;;;4.67;;
938;SDS011;456;53.584;9.968;2024-01-30T01:52:50;6.00;;;5.40;;
938;SDS011;456;53.584;9.968;2024-01-30T01:55:16;5.90;;;5.40;;
938;SDS011;456;53.584;9.968;2024-01-30T01:57:44;6.27;;;5.77;;
938;SDS011;456;53.584;9.968;2024-01-30T02:00:10;6.47;;;5.20;;
938;SDS011;456;53.584;9.968;2024-01-30T02:02:37;5.23;;;4.77;;
938;SDS011;456;53.584;9.968;2024-01-30T02:11:48;6.10;;;5.50;;
938;SDS011;456;53.584;9.968;2024-01-30T02:14:14;6.10;;;5.60;;
938;SDS011;456;53.584;9.968;2024-01-30T02:16:39;6.27;;;5.70;;
938;SDS011;456;53.584;9.968;2024-01-30T02:19:05;6.90;;;6.30;;
938;SDS011;456;53.584;9.968;2024-01-30T02:21:32;5.63;;;5.17;;
938;SDS011;456;53.584;9.968;2024-01-30T02:23:58;6.43;;;5.93;;
938;SDS011;456;53.584;9.968;2024-01-30T02:26:24;5.53;;;5.03;;
938;SDS011;456;53.584;9.968;2024-01-30T02:28:50;6.63;;;6.10;;
938;SDS011;456;53.584;9.968;2024-01-30T02:31:15;6.07;;;5.50;;
938;SDS011;456;53.584;9.968;2024-01-30T02:33:41;6.40;;;5.20;;
938;SDS011;456;53.584;9.968;2024-01-30T02:36:07;6.53;;;6.03;;
938;SDS011;456;53.584;9.968;2024-01-30T02:38:32;6.73;;;6.13;;
938;SDS011;456;53.584;9.968;2024-01-30T02:40:58;6.63;;;6.03;;
938;SDS011;456;53.584;9.968;2024-01-30T02:43:23;6.37;;;5.60;;
938;SDS011;456;53.584;9.968;2024-01-30T02:45:49;6.70;;;5.50;;
938;SDS011;456;53.584;9.968;2024-01-30T02:48:14;5.83;;;5.43;;
938;SDS011;456;53.584;9.968;2024-01-30T02:50:40;5.53;;;5.13;;
938;SDS011;456;53.584;9.968;2024-01-30T02:53:06;6.63;;;6.03;;
938;SDS011;456;53.584;9.968;2024-01-30T02:55:31;6.07;;;5.50;;
938;SDS011;456;53.584;9.968;2024-01-30T02:57:57;6.63;;;6.03;;
938;SDS011;456;53.584;9.968;2024-01-30T03:00:23;5.80;;;5.30;;
938;SDS011;456;53.584;9.968;2024-01-30T03:02:48;6.20;;;5.70;;
938;SDS011;456;53.584;9.968;2024-01-30T03:05:14;6.50;;;5.90;;
938;SDS011;456;53.584;9.968;2024-01-30T03:07:39;5.70;;;5.30;;
938;SDS011;456;53.584;9.968;2024-01-30T03:10:05;6.50;;;6.00;;
938;SDS011;456;53.584;9.968;2024-01-30T03:12:31;6.97;;;5.97;;
938;SDS011;456;53.584;9.968;2024-01-30T03:14:57;6.60;;;5.87;;
938;SDS011;456;53.584;9.968;2024-01-30T03:17:23;6.27;;;5.77;;
938;SDS011;456;53.584;9.968;2024-01-30T03:19:49;6.47;;;5.97;;
938;SDS011;456;53.584;9.968;2024-01-30T03:22:15;7.30;;;5.93;;
938;SDS011;456;53.584;9.968;2024-01-30T03:24:40;6.47;;;5.77;;
938;SDS011;456;53.584;9.968;2024-01-30T03:27:06;6.13;;;5.63;;
938;SDS011;456;53.584;9.968;2024-01-30T03:29:32;6.80;;;6.20;;
938;SDS011;456;53.584;9.968;2024-01-30T03:31:57;6.60;;;6.00;;
938;SDS011;456;53.584;9.968;2024-01-30T03:34:23;6.23;;;5.73;;
938;SDS011;456;53.584;9.968;2024-01-30T03:36:49;7.03;;;6.43;;
938;SDS011;456;53.584;9.968;2024-01-30T03:39:14;6.70;;;6.20;;
938;SDS011;456;53.584;9.968;2024-01-30T03:41:41;6.40;;;5.73;;
938;SDS011;456;53.584;9.968;2024-01-30T03:44:08;6.77;;;6.23;;
938;SDS011;456;53.584;9.968;2024-01-30T03:46:33;6.40;;;5.83;;
938;SDS011;456;53.584;9.968;2024-01-30T03:48:59;6.43;;;5.83;;
938;SDS011;456;53.584;9.968;2024-01-30T03:51:25;6.33;;;5.83;;
938;SDS011;456;53.584;9.968;2024-01-30T03:53:50;6.40;;;5.80;;
938;SDS011;456;53.584;9.968;2024-01-30T03:56:16;6.90;;;5.63;;
938;SDS011;456;53.584;9.968;2024-01-30T03:58:41;7.00;;;6.40;;
938;SDS011;456;53.584;9.968;2024-01-30T04:01:07;6.07;;;5.57;;
938;SDS011;456;53.584;9.968;2024-01-30T04:03:37;6.13;;;5.63;;
938;SDS011;456;53.584;9.968;2024-01-30T04:06:03;6.83;;;6.20;;
938;SDS011;456;53.584;9.968;2024-01-30T04:08:29;6.70;;;6.20;;
938;SDS011;456;53.584;9.968;2024-01-30T04:10:55;6.40;;;5.90;;
938;SDS011;456;53.584;9.968;2024-01-30T04:13:20;6.40;;;5.90;;
938;SDS011;456;53.584;9.968;2024-01-30T04:15:46;5.90;;;5.47;;
938;SDS011;456;53.584;9.968;2024-01-30T04:18:11;6.13;;;5.63;;
938;SDS011;456;53.584;9.968;2024-01-30T04:20:37;6.23;;;5.43;;
938;SDS011;456;53.584;9.968;2024-01-30T04:23:03;7.17;;;6.47;;
938;SDS011;456;53.584;9.968;2024-01-30T04:25:28;6.80;;;6.13;;
938;SDS011;456;53.584;9.968;2024-01-30T04:27:54;6.17;;;5.77;;
938;SDS011;456;53.584;9.968;2024-01-30T04:30:19;6.97;;;6.37;;
938;SDS011;456;53.584;9.968;2024-01-30T04:32:45;6.20;;;5.70;;
938;SDS011;456;53.584;9.968;2024-01-30T04:35:10;6.87;;;6.17;;
938;SDS011;456;53.584;9.968;2024-01-30T04:37:36;6.87;;;6.27;;
938;SDS011;456;53.584;9.968;2024-01-30T04:40:02;7.90;;;7.20;;
938;SDS011;456;53.584;9.968;2024-01-30T04:42:28;7.87;;;7.00;;
938;SDS011;456;53.584;9.968;2024-01-30T04:44:53;6.43;;;5.93;;
938;SDS011;456;53.584;9.968;2024-01-30T04:47:19;7.03;;;6.30;;
938;SDS011;456;53.584;9.968;2024-01-30T04:49:44;6.70;;;6.10;;
938;SDS011;456;53.584;9.968;2024-01-30T04:52:10;6.23;;;5.73;;
938;SDS011;456;53.584;9.968;2024-01-30T04:54:36;6.90;;;6.20;;
938;SDS011;456;53.584;9.968;2024-01-30T04:57:01;6.80;;;6.20;;
938;SDS011;456;53.584;9.968;2024-01-30T04:59:27;8.43;;;6.60;;
938;SDS011;456;53.584;9.968;2024-01-30T05:01:53;6.43;;;5.77;;
938;SDS011;456;53.584;9.968;2024-01-30T05:04:19;7.17;;;6.47;;
938;SDS011;456;53.584;9.968;2024-01-30T05:06:45;6.00;;;5.50;;
938;SDS011;456;53.584;9.968;2024-01-30T05:09:11;6.70;;;6.10;;
938;SDS011;456;53.584;9.968;2024-01-30T05:11:37;5.37;;;5.00;;
938;SDS011;456;53.584;9.968;2024-01-30T05:14:04;6.10;;;5.60;;
938;SDS011;456;53.584;9.968;2024-01-30T05:16:30;6.13;;;5.60;;
938;SDS011;456;53.584;9.968;2024-01-30T05:18:56;5.90;;;5.40;;
938;SDS011;456;53.584;9.968;2024-01-30T05:21:22;6.10;;;5.60;;
938;SDS011;456;53.584;9.968;2024-01-30T05:23:47;5.97;;;5.10;;
938;SDS011;456;53.584;9.968;2024-01-30T05:26:13;6.00;;;5.50;;
938;SDS011;456;53.584;9.968;2024-01-30T05:28:38;5.50;;;5.07;;
938;SDS011;456;53.584;9.968;2024-01-30T05:31:04;5.87;;;5.30;;
938;SDS011;456;53.584;9.968;2024-01-30T05:33:29;5.70;;;5.20;;
938;SDS011;456;53.584;9.968;2024-01-30T05:35:55;5.90;;;5.40;;
938;SDS011;456;53.584;9.968;2024-01-30T05:38:20;5.77;;;5.33;;
938;SDS011;456;53.584;9.968;2024-01-30T05:40:46;6.13;;;5.63;;
938;SDS011;456;53.584;9.968;2024-01-30T05:43:12;5.90;;;5.40;;
938;SDS011;456;53.584;9.968;2024-01-30T05:45:37;6.30;;;5.30;;
938;SDS011;456;53.584;9.968;2024-01-30T05:48:03;5.60;;;5.10;;
938;SDS011;456;53.584;9.968;2024-01-30T05:50:29;5.07;;;4.57;;
938;SDS011;456;53.584;9.968;2024-01-30T05:52:55;5.03;;;4.73;;
938;SDS011;456;53.584;9.968;2024-01-30T05:55:21;6.37;;;5.40;;
938;SDS011;456;53.584;9.968;2024-01-30T05:57:46;5.37;;;4.97;;
938;SDS011;456;53.584;9.968;2024-01-30T06:00:12;4.50;;;4.10;;
938;SDS011;456;53.584;9.968;2024-01-30T06:02:38;6.37;;;5.77;;
938;SDS011;456;53.584;9.968;2024-01-30T06:05:04;5.77;;;5.33;;
938;SDS011;456;53.584;9.968;2024-01-30T06:07:29;5.43;;;5.00;;
938;SDS011;456;53.584;9.968;2024-01-30T06:09:55;6.03;;;5.53;;
938;SDS011;456;53.584;9.968;2024-01-30T06:12:21;5.47;;;4.97;;
938;SDS011;456;53.584;9.968;2024-01-30T06:14:46;6.27;;;5.77;;
938;SDS011;456;53.584;9.968;2024-01-30T06:17:12;5.73;;;5.23;;
938;SDS011;456;53.584;9.968;2024-01-30T06:19:38;6.20;;;5.50;;
938;SDS011;456;53.584;9.968;2024-01-30T06:22:04;5.47;;;4.97;;
938;SDS011;456;53.584;9.968;2024-01-30T06:24:30;5.23;;;4.83;;
938;SDS011;456;53.584;9.968;2024-01-30T06:26:55;5.50;;;5.00;;
938;SDS011;456;53.584;9.968;2024-01-30T06:29:21;5.23;;;4.83;;
938;SDS011;456;53.584;9.968;2024-01-30T06:31:47;5.23;;;4.83;;
938;SDS011;456;53.584;9.968;2024-01-30T06:34:12;5.50;;;5.00;;
938;SDS011;456;53.584;9.968;2024-01-30T06:36:38;6.13;;;5.30;;
938;SDS011;456;53.584;9.968;2024-01-30T06:39:03;5.40;;;4.90;;
938;SDS011;456;53.584;9.968;2024-01-30T06:41:30;5.67;;;5.13;;
938;SDS011;456;53.584;9.968;2024-01-30T06:43:56;5.90;;;5.10;;
938;SDS011;456;53.584;9.968;2024-01-30T06:46:21;5.43;;;4.93;;
938;SDS011;456;53.584;9.968;2024-01-30T06:48:47;5.90;;;5.40;;
938;SDS011;456;53.584;9.968;2024-01-30T06:51:13;5.10;;;4.70;;
938;SDS011;456;53.584;9.968;2024-01-30T06:53:38;4.90;;;4.47;;
938;SDS011;456;53.584;9.968;2024-01-30T06:56:04;5.60;;;4.97;;
938;SDS011;456;53.584;9.968;2024-01-30T06:58:30;5.87;;;5.07;;
938;SDS011;456;53.584;9.968;2024-01-30T07:00:57;4.87;;;4.47;;
938;SDS011;456;53.584;9.968;2024-01-30T07:03:23;5.23;;;4.80;;
938;SDS011;456;53.584;9.968;2024-01-30T07:05:48;4.70;;;4.30;;
938;SDS011;456;53.584;9.968;2024-01-30T07:08:15;5.50;;;5.00;;
938;SDS011;456;53.584;9.968;2024-01-30T07:10:42;5.17;;;4.70;;
938;SDS011;456;53.584;9.968;2024-01-30T07:13:08;4.87;;;4.47;;
938;SDS011;456;53.584;9.968;2024-01-30T07:15:35;5.17;;;4.70;;
938;SDS011;456;53.584;9.968;2024-01-30T07:18:01;6.47;;;5.37;;
938;SDS011;456;53.584;9.968;2024-01-30T07:20:27;5.73;;;4.70;;
938;SDS011;456;53.584;9.968;2024-01-30T07:22:55;5.43;;;4.60;;
938;SDS011;456;53.584;9.968;2024-01-30T07:25:21;5.23;;;4.73;;
938;SDS011;456;53.584;9.968;2024-01-30T07:27:51;5.17;;;4.77;;
938;SDS011;456;53.584;9.968;2024-01-30T07:30:20;5.30;;;4.80;;
938;SDS011;456;53.584;9.968;2024-01-30T07:32:46;6.23;;;4.40;;
938;SDS011;456;53.584;9.968;2024-01-30T07:35:12;5.13;;;4.40;;
938;SDS011;456;53.584;9.968;2024-01-30T07:37:38;5.33;;;4.90;;
938;SDS011;456;53.584;9.968;2024-01-30T07:40:04;7.47;;;5.17;;
938;SDS011;456;53.584;9.968;2024-01-30T07:42:31;6.40;;;5.17;;
938;SDS011;456;53.584;9.968;2024-01-30T07:44:57;5.70;;;5.20;;
938;SDS011;456;53.584;9.968;2024-01-30T07:47:22;6.20;;;5.40;;
938;SDS011;456;53.584;9.968;2024-01-30T07:49:48;5.30;;;4.70;;
938;SDS011;456;53.584;9.968;2024-01-30T07:52:14;5.10;;;4.70;;
938;SDS011;456;53.584;9.968;2024-01-30T07:54:48;4.97;;;4.47;;
938;SDS011;456;53.584;9.968;2024-01-30T07:57:15;5.70;;;5.20;;
938;SDS011;456;53.584;9.968;2024-01-30T07:59:44;6.30;;;5.27;;
938;SDS011;456;53.584;9.968;2024-01-30T08:02:10;5.33;;;4.83;;
938;SDS011;456;53.584;9.968;2024-01-30T08:04:38;5.97;;;5.47;;
938;SDS011;456;53.584;9.968;2024-01-30T08:07:04;5.93;;;5.33;;
938;SDS011;456;53.584;9.968;2024-01-30T08:09:29;5.90;;;5.40;;
938;SDS011;456;53.584;9.968;2024-01-30T08:11:55;7.40;;;5.27;;
938;SDS011;456;53.584;9.968;2024-01-30T08:14:21;5.87;;;5.37;;
938;SDS011;456;53.584;9.968;2024-01-30T08:16:47;7.03;;;6.40;;
938;SDS011;456;53.584;9.968;2024-01-30T08:19:12;5.50;;;5.00;;
938;SDS011;456;53.584;9.968;2024-01-30T08:21:39;7.60;;;6.10;;
938;SDS011;456;53.584;9.968;2024-01-30T08:24:04;6.90;;;5.47;;
938;SDS011;456;53.584;9.968;2024-01-30T08:26:31;5.57;;;5.07;;
938;SDS011;456;53.584;9.968;2024-01-30T08:28:57;6.20;;;5.70;;
938;SDS011;456;53.584;9.968;2024-01-30T08:31:23;5.33;;;4.83;;
938;SDS011;456;53.584;9.968;2024-01-30T08:33:49;4.90;;;4.50;;
938;SDS011;456;53.584;9.968;2024-01-30T08:36:15;5.27;;;4.87;;
938;SDS011;456;53.584;9.968;2024-01-30T08:38:41;5.87;;;4.90;;
938;SDS011;456;53.584;9.968;2024-01-30T08:41:07;6.67;;;4.90;;
938;SDS011;456;53.584;9.968;2024-01-30T08:43:33;5.70;;;4.57;;
938;SDS011;456;53.584;9.968;2024-01-30T08:45:59;5.33;;;4.90;;
938;SDS011;456;53.584;9.968;2024-01-30T08:48:25;5.83;;;5.27;;
938;SDS011;456;53.584;9.968;2024-01-30T08:50:51;7.60;;;5.57;;
938;SDS011;456;53.584;9.968;2024-01-30T08:53:16;5.53;;;4.97;;
938;SDS011;456;53.584;9.968;2024-01-30T08:55:42;5.20;;;4.70;;
938;SDS011;456;53.584;9.968;2024-01-30T08:58:07;5.60;;;5.20;;
938;SDS011;456;53.584;9.968;2024-01-30T09:00:33;5.67;;;5.17;;
938;SDS011;456;53.584;9.968;2024-01-30T09:02:58;5.43;;;4.93;;
938;SDS011;456;53.584;9.968;2024-01-30T09:05:24;5.70;;;5.27;;
938;SDS011;456;53.584;9.968;2024-01-30T09:07:50;5.53;;;5.03;;
938;SDS011;456;53.584;9.968;2024-01-30T09:10:15;6.50;;;5.10;;
938;SDS011;456;53.584;9.968;2024-01-30T09:12:41;5.70;;;5.20;;
938;SDS011;456;53.584;9.968;2024-01-30T09:15:06;5.53;;;5.13;;
938;SDS011;456;53.584;9.968;2024-01-30T09:17:32;5.20;;;4.80;;
938;SDS011;456;53.584;9.968;2024-01-30T09:19:58;6.30;;;5.70;;
938;SDS011;456;53.584;9.968;2024-01-30T09:22:24;6.20;;;5.60;;
938;SDS011;456;53.584;9.968;2024-01-30T09:24:49;5.43;;;5.03;;
938;SDS011;456;53.584;9.968;2024-01-30T09:27:15;5.80;;;5.30;;
938;SDS011;456;53.584;9.968;2024-01-30T09:29:41;6.30;;;5.80;;
938;SDS011;456;53.584;9.968;2024-01-30T09:32:06;6.27;;;5.77;;
938;SDS011;456;53.584;9.968;2024-01-30T09:34:32;5.63;;;5.10;;
938;SDS011;456;53.584;9.968;2024-01-30T09:36:58;6.00;;;5.50;;
938;SDS011;456;53.584;9.968;2024-01-30T09:39:25;6.20;;;5.70;;
938;SDS011;456;53.584;9.968;2024-01-30T09:42:17;5.43;;;5.03;;
938;SDS011;456;53.584;9.968;2024-01-30T09:44:43;5.30;;;4.20;;
938;SDS011;456;53.584;9.968;2024-01-30T09:47:09;5.40;;;4.90;;
938;SDS011;456;53.584;9.968;2024-01-30T09:49:35;5.90;;;5.40;;
938;SDS011;456;53.584;9.968;2024-01-30T09:52:02;5.93;;;5.20;;
938;SDS011;456;53.584;9.968;2024-01-30T09:54:31;5.90;;;5.40;;
938;SDS011;456;53.584;9.968;2024-01-30T09:56:57;6.10;;;5.57;;
938;SDS011;456;53.584;9.968;2024-01-30T09:59:23;5.70;;;5.20;;
938;SDS011;456;53.584;9.968;2024-01-30T10:01:50;5.10;;;4.60;;
938;SDS011;456;53.584;9.968;2024-01-30T10:04:16;5.90;;;5.40;;
938;SDS011;456;53.584;9.968;2024-01-30T10:06:41;5.80;;;5.23;;
938;SDS011;456;53.584;9.968;2024-01-30T10:09:07;6.00;;;5.50;;
938;SDS011;456;53.584;9.968;2024-01-30T10:11:34;6.10;;;5.40;;
938;SDS011;456;53.584;9.968;2024-01-30T10:14:00;5.97;;;5.47;;
938;SDS011;456;53.584;9.968;2024-01-30T10:16:26;6.00;;;5.40;;
938;SDS011;456;53.584;9.968;2024-01-30T10:18:52;5.87;;;5.30;;
938;SDS011;456;53.584;9.968;2024-01-30T10:21:17;6.10;;;5.50;;
938;SDS011;456;53.584;9.968;2024-01-30T10:23:43;5.43;;;4.93;;
938;SDS011;456;53.584;9.968;2024-01-30T10:26:12;5.93;;;5.43;;
938;SDS011;456;53.584;9.968;2024-01-30T10:28:38;5.20;;;4.80;;
938;SDS011;456;53.584;9.968;2024-01-30T10:31:04;5.87;;;5.47;;
938;SDS011;456;53.584;9.968;2024-01-30T10:33:30;5.90;;;5.00;;
938;SDS011;456;53.584;9.968;2024-01-30T10:36:02;5.60;;;5.10;;
938;SDS011;456;53.584;9.968;2024-01-30T10:38:29;5.97;;;5.47;;
938;SDS011;456;53.584;9.968;2024-01-30T10:40:56;6.07;;;5.40;;
938;SDS011;456;53.584;9.968;2024-01-30T10:43:22;5.97;;;5.37;;
938;SDS011;456;53.584;9.968;2024-01-30T10:45:55;6.80;;;5.90;;
938;SDS011;456;53.584;9.968;2024-01-30T10:48:26;6.20;;;5.60;;
938;SDS011;456;53.584;9.968;2024-01-30T10:50:55;5.30;;;4.90;;
938;SDS011;456;53.584;9.968;2024-01-30T10:53:22;6.17;;;5.50;;
938;SDS011;456;53.584;9.968;2024-01-30T10:55:48;6.03;;;5.53;;
938;SDS011;456;53.584;9.968;2024-01-30T10:58:17;5.40;;;4.90;;
938;SDS011;456;53.584;9.968;2024-01-30T11:00:43;5.70;;;5.20;;
938;SDS011;456;53.584;9.968;2024-01-30T11:03:10;5.50;;;5.00;;
938;SDS011;456;53.584;9.968;2024-01-30T11:05:40;5.40;;;5.00;;
938;SDS011;456;53.584;9.968;2024-01-30T11:08:12;5.37;;;4.97;;
938;SDS011;456;53.584;9.968;2024-01-30T11:10:48;6.20;;;5.60;;
938;SDS011;456;53.584;9.968;2024-01-30T11:13:13;6.07;;;5.57;;
938;SDS011;456;53.584;9.968;2024-01-30T11:15:40;6.53;;;4.87;;
938;SDS011;456;53.584;9.968;2024-01-30T11:18:05;6.20;;;5.60;;
938;SDS011;456;53.584;9.968;2024-01-30T11:20:32;5.63;;;5.13;;
938;SDS011;456;53.584;9.968;2024-01-30T11:22:58;5.77;;;5.37;;
938;SDS011;456;53.584;9.968;2024-01-30T11:25:24;5.10;;;4.70;;
938;SDS011;456;53.584;9.968;2024-01-30T11:27:51;5.90;;;5.40;;
938;SDS011;456;53.584;9.968;2024-01-30T11:38:03;5.40;;;5.00;;
938;SDS011;456;53.584;9.968;2024-01-30T11:40:30;5.40;;;5.00;;
938;SDS011;456;53.584;9.968;2024-01-30T11:42:58;6.30;;;4.97;;
938;SDS011;456;53.584;9.968;2024-01-30T11:45:25;5.67;;;5.17;;
938;SDS011;456;53.584;9.968;2024-01-30T11:47:52;5.17;;;4.77;;
938;SDS011;456;53.584;9.968;2024-01-30T11:50:18;5.17;;;4.77;;
938;SDS011;456;53.584;9.968;2024-01-30T11:52:44;5.27;;;4.77;;
938;SDS011;456;53.584;9.968;2024-01-30T11:55:10;5.03;;;4.63;;
938;SDS011;456;53.584;9.968;2024-01-30T11:57:36;5.30;;;4.87;;
938;SDS011;456;53.584;9.968;2024-01-30T12:00:05;5.83;;;5.10;;
938;SDS011;456;53.584;9.968;2024-01-30T12:02:38;5.00;;;4.57;;
938;SDS011;456;53.584;9.968;2024-01-30T12:05:06;5.63;;;4.87;;
938;SDS011;456;53.584;9.968;2024-01-30T12:07:32;5.00;;;4.60;;
938;SDS011;456;53.584;9.968;2024-01-30T12:09:58;5.20;;;4.70;;
938;SDS011;456;53.584;9.968;2024-01-30T12:12:25;5.00;;;4.60;;
938;SDS011;456;53.584;9.968;2024-01-30T12:14:51;4.60;;;4.20;;
938;SDS011;456;53.584;9.968;2024-01-30T12:17:30;5.37;;;4.87;;
938;SDS011;456;53.584;9.968;2024-01-30T12:20:07;5.10;;;4.70;;
938;SDS011;456;53.584;9.968;2024-01-30T12:22:37;5.13;;;4.63;;
938;SDS011;456;53.584;9.968;2024-01-30T12:25:10;5.40;;;5.00;;
938;SDS011;456;53.584;9.968;2024-01-30T12:27:37;5.20;;;4.80;;
938;SDS011;456;53.584;9.968;2024-01-30T12:30:07;5.30;;;4.83;;
938;SDS011;456;53.584;9.968;2024-01-30T12:32:34;5.47;;;4.77;;
938;SDS011;456;53.584;9.968;2024-01-30T12:35:01;5.27;;;4.77;;
938;SDS011;456;53.584;9.968;2024-01-30T12:37:27;4.80;;;4.40;;
938;SDS011;456;53.584;9.968;2024-01-30T12:39:54;5.37;;;4.93;;
938;SDS011;456;53.584;9.968;2024-01-30T12:42:20;4.43;;;4.03;;
938;SDS011;456;53.584;9.968;2024-01-30T12:44:47;5.80;;;5.30;;
938;SDS011;456;53.584;9.968;2024-01-30T12:47:13;5.10;;;4.60;;
938;SDS011;456;53.584;9.968;2024-01-30T12:49:41;5.37;;;4.87;;
938;SDS011;456;53.584;9.968;2024-01-30T12:52:10;5.00;;;4.60;;
938;SDS011;456;53.584;9.968;2024-01-30T12:54:39;5.00;;;4.60;;
938;SDS011;456;53.584;9.968;2024-01-30T12:57:05;5.10;;;4.70;;
938;SDS011;456;53.584;9.968;2024-01-30T12:59:31;5.33;;;4.83;;
938;SDS011;456;53.584;9.968;2024-01-30T13:01:56;5.53;;;5.03;;
938;SDS011;456;53.584;9.968;2024-01-30T13:04:23;5.03;;;4.63;;
938;SDS011;456;53.584;9.968;2024-01-30T13:06:49;4.43;;;4.03;;
938;SDS011;456;53.584;9.968;2024-01-30T13:09:14;5.10;;;4.60;;
938;SDS011;456;53.584;9.968;2024-01-30T13:11:40;4.80;;;4.40;;
938;SDS011;456;53.584;9.968;2024-01-30T13:14:06;4.83;;;4.43;;
938;SDS011;456;53.584;9.968;2024-01-30T13:16:31;5.07;;;4.57;;
938;SDS011;456;53.584;9.968;2024-01-30T13:18:57;5.10;;;4.67;;
938;SDS011;456;53.584;9.968;2024-01-30T13:21:23;5.17;;;4.47;;
938;SDS011;456;53.584;9.968;2024-01-30T13:23:48;4.80;;;4.40;;
938;SDS011;456;53.584;9.968;2024-01-30T13:26:18;4.80;;;4.40;;
938;SDS011;456;53.584;9.968;2024-01-30T13:28:43;4.50;;;4.10;;
938;SDS011;456;53.584;9.968;2024-01-30T13:31:09;8.97;;;5.33;;
938;SDS011;456;53.584;9.968;2024-01-30T13:33:34;5.63;;;4.27;;
938;SDS011;456;53.584;9.968;2024-01-30T13:36:00;5.53;;;5.03;;
938;SDS011;456;53.584;9.968;2024-01-30T13:38:26;4.77;;;4.33;;
938;SDS011;456;53.584;9.968;2024-01-30T13:40:51;4.93;;;4.50;;
938;SDS011;456;53.584;9.968;2024-01-30T13:43:17;5.70;;;5.20;;
938;SDS011;456;53.584;9.968;2024-01-30T13:45:43;5.37;;;4.70;;
938;SDS011;456;53.584;9.968;2024-01-30T13:48:08;4.53;;;4.20;;
938;SDS011;456;53.584;9.968;2024-01-30T13:50:34;5.63;;;5.13;;
938;SDS011;456;53.584;9.968;2024-01-30T13:53:00;4.80;;;4.40;;
938;SDS011;456;53.584;9.968;2024-01-30T13:55:27;5.77;;;5.20;;
938;SDS011;456;53.584;9.968;2024-01-30T13:57:52;5.30;;;4.80;;
938;SDS011;456;53.584;9.968;2024-01-30T14:00:18;5.37;;;4.90;;
938;SDS011;456;53.584;9.968;2024-01-30T14:02:43;6.20;;;5.07;;
938;SDS011;456;53.584;9.968;2024-01-30T14:05:09;5.63;;;5.13;;
938;SDS011;456;53.584;9.968;2024-01-30T14:07:37;5.80;;;5.20;;
938;SDS011;456;53.584;9.968;2024-01-30T14:10:09;5.87;;;4.80;;
938;SDS011;456;53.584;9.968;2024-01-30T14:12:36;5.07;;;4.60;;
938;SDS011;456;53.584;9.968;2024-01-30T14:15:01;5.33;;;4.43;;
938;SDS011;456;53.584;9.968;2024-01-30T14:17:27;6.43;;;5.30;;
938;SDS011;456;53.584;9.968;2024-01-30T14:19:53;4.90;;;4.47;;
938;SDS011;456;53.584;9.968;2024-01-30T14:22:18;5.90;;;5.30;;
938;SDS011;456;53.584;9.968;2024-01-30T14:24:44;5.23;;;4.47;;
938;SDS011;456;53.584;9.968;2024-01-30T14:27:10;5.20;;;4.70;;
938;SDS011;456;53.584;9.968;2024-01-30T14:29:35;4.67;;;4.27;;
938;SDS011;456;53.584;9.968;2024-01-30T14:32:01;5.50;;;5.00;;
938;SDS011;456;53.584;9.968;2024-01-30T14:34:29;5.07;;;4.63;;
938;SDS011;456;53.584;9.968;2024-01-30T14:36:54;4.90;;;4.50;;
938;SDS011;456;53.584;9.968;2024-01-30T14:39:20;4.83;;;4.50;;
938;SDS011;456;53.584;9.968;2024-01-30T14:41:45;5.07;;;4.60;;
938;SDS011;456;53.584;9.968;2024-01-30T14:44:11;4.90;;;4.50;;
938;SDS011;456;53.584;9.968;2024-01-30T14:46:37;5.10;;;4.50;;
938;SDS011;456;53.584;9.968;2024-01-30T14:49:03;4.80;;;4.30;;
938;SDS011;456;53.584;9.968;2024-01-30T14:51:30;5.03;;;4.53;;
938;SDS011;456;53.584;9.968;2024-01-30T14:53:56;4.83;;;4.33;;
938;SDS011;456;53.584;9.968;2024-01-30T14:56:22;6.87;;;4.80;;
938;SDS011;456;53.584;9.968;2024-01-30T14:58:48;4.77;;;4.37;;
938;SDS011;456;53.584;9.968;2024-01-30T15:01:13;4.70;;;4.30;;
938;SDS011;456;53.584;9.968;2024-01-30T15:03:39;4.50;;;4.20;;
938;SDS011;456;53.584;9.968;2024-01-30T15:06:05;5.87;;;5.37;;
938;SDS011;456;53.584;9.968;2024-01-30T15:08:31;5.47;;;4.97;;
938;SDS011;456;53.584;9.968;2024-01-30T15:10:58;5.60;;;5.10;;
938;SDS011;456;53.584;9.968;2024-01-30T15:13:24;5.53;;;5.03;;
938;SDS011;456;53.584;9.968;2024-01-30T15:15:49;5.20;;;4.80;;
938;SDS011;456;53.584;9.968;2024-01-30T15:18:15;5.70;;;5.20;;
938;SDS011;456;53.584;9.968;2024-01-30T15:20:40;6.07;;;4.43;;
938;SDS011;456;53.584;9.968;2024-01-30T15:23:06;5.40;;;4.90;;
938;SDS011;456;53.584;9.968;2024-01-30T15:25:31;6.43;;;4.90;;
938;SDS011;456;53.584;9.968;2024-01-30T15:27:57;5.60;;;5.20;;
938;SDS011;456;53.584;9.968;2024-01-30T15:30:22;5.87;;;5.07;;
938;SDS011;456;53.584;9.968;2024-01-30T15:32:48;5.73;;;5.23;;
938;SDS011;456;53.584;9.968;2024-01-30T15:35:14;5.00;;;4.60;;
938;SDS011;456;53.584;9.968;2024-01-30T15:37:39;5.10;;;4.70;;
938;SDS011;456;53.584;9.968;2024-01-30T15:40:05;4.90;;;4.50;;
938;SDS011;456;53.584;9.968;2024-01-30T15:42:31;5.17;;;4.67;;
938;SDS011;456;53.584;9.968;2024-01-30T15:44:57;5.40;;;4.90;;
938;SDS011;456;53.584;9.968;2024-01-30T15:47:24;5.13;;;4.50;;
938;SDS011;456;53.584;9.968;2024-01-30T15:49:49;5.10;;;4.70;;
938;SDS011;456;53.584;9.968;2024-01-30T15:52:15;4.87;;;4.47;;